This is the latest recevied weather packets stored in our database for station/object OK2IGL-6. If no packets are shown the sender has not sent any weather packets the latest 1 day(s).
| Time | Temp. | Humidity | Pressure | Rain* | Wind** | Luminosity | Snow |
|---|---|---|---|---|---|---|---|
| 1778099698 | 18.33° C | 68% | 1002 hPa | - | - | - | - |
| 1778097980 | 18.89° C | 66% | 1001 hPa | - | - | - | - |
| 1778097551 | 18.89° C | 66% | 1001 hPa | - | - | - | - |
| 1778096692 | 18.89° C | 65% | 1001 hPa | - | - | - | - |
| 1778095672 | 19.44° C | 64% | 1000 hPa | - | - | - | - |
| 1778093525 | 20° C | 61% | 1001 hPa | - | - | - | - |
| 1778091807 | 21.11° C | 58% | 1000 hPa | - | - | - | - |
| 1778090948 | 21.11° C | 57% | 1000 hPa | - | - | - | - |
| 1778090089 | 21.67° C | 56% | 1000 hPa | - | - | - | - |
| 1778086922 | 23.33° C | 53% | 1000 hPa | - | - | - | - |
| 1778086063 | 23.33° C | 53% | 1000 hPa | - | - | - | - |
| 1778085204 | 23.33° C | 52% | 1000 hPa | - | - | - | - |
| 1778082894 | 24.44° C | 50% | 1000 hPa | - | - | - | - |
| 1778080747 | 24.44° C | 51% | 1001 hPa | - | - | - | - |
| 1778079888 | 24.44° C | 50% | 1001 hPa | - | - | - | - |
| 1778078170 | 25° C | 50% | 1001 hPa | - | - | - | - |
| 1778076291 | 24.44° C | 53% | 1002 hPa | - | - | - | - |
| 1778075862 | 24.44° C | 52% | 1002 hPa | - | - | - | - |
| 1778075003 | 25° C | 53% | 1002 hPa | - | - | - | - |
| 1778074144 | 24.44° C | 54% | 1003 hPa | - | - | - | - |
| 1778073285 | 24.44° C | 55% | 1003 hPa | - | - | - | - |
| 1778071567 | 24.44° C | 55% | 1003 hPa | - | - | - | - |
| 1778070279 | 24.44° C | 55% | 1003 hPa | - | - | - | - |
| 1778069259 | 25° C | 53% | 1003 hPa | - | - | - | - |
| 1778068400 | 25° C | 53% | 1004 hPa | - | - | - | - |
* Rain since midnight (hover to see other rain measurements)
** Current wind speed in m/s (hover to see current wind gust speed)